Time;durP1;ratioP1;P1;durP2;ratioP2;P2;SDS_P1;SDS_P2;PMS_P1;PMS_P2;Temp;Humidity;BMP_temperature;BMP_pressure;BME280_temperature;BME280_humidity;BME280_pressure;Samples;Min_cycle;Max_cycle;Signal;HPM_P1;HPM_P2
2022/11/16 00:02:57;;;;;;;63.2;76.3;;;;;;;8.9;88.1;98020;;;;
2022/11/16 00:12:57;;;;;;;63.2;76.3;;;;;;;8.9;88.2;98010;;;;
2022/11/16 00:23:57;;;;;;;62.5;77.1;;;;;;;9;88;98000;;;;
2022/11/16 00:33:57;;;;;;;62.5;77.1;;;;;;;8.9;87.9;97990;;;;
2022/11/16 00:44:57;;;;;;;62.5;77.1;;;;;;;8.9;88.1;98000;;;;
2022/11/16 00:54:57;;;;;;;64.3;75.3;;;;;;;9.1;88.2;97990;;;;
2022/11/16 01:05:57;;;;;;;64.3;75.3;;;;;;;9.1;88;97990;;;;
2022/11/16 01:15:57;;;;;;;64.3;75.3;;;;;;;9.1;87.8;97990;;;;
2022/11/16 01:25:57;;;;;;;65.2;74.7;;;;;;;9;88;97980;;;;
2022/11/16 01:36:57;;;;;;;65.2;74.7;;;;;;;9;88.1;97970;;;;
2022/11/16 01:46:57;;;;;;;65.2;74.7;;;;;;;9.1;88.2;97950;;;;
2022/11/16 01:56:57;;;;;;;70.4;81.7;;;;;;;9.2;88.1;97940;;;;
2022/11/16 02:17:57;;;;;;;70.4;81.7;;;;;;;9;88.3;97900;;;;
2022/11/16 02:27:57;;;;;;;62;72.5;;;;;;;9;88.6;97890;;;;
2022/11/16 02:38:57;;;;;;;62;72.5;;;;;;;9.1;88.7;97890;;;;
2022/11/16 02:48:57;;;;;;;62;72.5;;;;;;;9.1;88.3;97880;;;;
2022/11/16 02:59:57;;;;;;;47.6;55.4;;;;;;;9.1;88.8;97860;;;;
2022/11/16 03:12:01;;;;;;;47.6;55.4;;;;;;;9.2;89;97860;;;;
2022/11/16 03:21:57;;;;;;;52.5;61.6;;;;;;;9.4;88.7;97860;;;;
2022/11/16 03:32:57;;;;;;;52.5;61.6;;;;;;;9.3;88.4;97860;;;;
2022/11/16 03:43:57;;;;;;;52.5;61.6;;;;;;;9.3;88.2;97860;;;;
2022/11/16 03:54:57;;;;;;;69.7;79.8;;;;;;;9.1;88.1;97840;;;;
2022/11/16 04:37:57;;;;;;;62.9;73.2;;;;;;;9.2;88.2;97820;;;;
2022/11/16 04:47:57;;;;;;;62.9;73.2;;;;;;;9.2;88.7;97810;;;;
2022/11/16 04:58:57;;;;;;;57.6;65;;;;;;;9.2;88.8;97800;;;;
2022/11/16 05:09:57;;;;;;;57.6;65;;;;;;;9.2;88.7;97790;;;;
2022/11/16 05:21:00;;;;;;;56;64.9;;;;;;;9.2;88.9;97790;;;;
2022/11/16 05:31:57;;;;;;;56;64.9;;;;;;;9.3;88.7;97780;;;;
2022/11/16 05:41:57;;;;;;;56;64.9;;;;;;;9.3;88.7;97790;;;;
2022/11/16 05:52:57;;;;;;;63.2;72.7;;;;;;;9.1;88.9;97780;;;;
2022/11/16 06:03:57;;;;;;;63.2;72.7;;;;;;;9.2;89.2;97770;;;;
2022/11/16 06:13:57;;;;;;;63.2;72.7;;;;;;;9.2;89.1;97770;;;;
2022/11/16 06:23:57;;;;;;;58.9;67;;;;;;;9.4;89.2;97770;;;;
2022/11/16 06:34:57;;;;;;;58.9;67;;;;;;;9.5;89;97770;;;;
2022/11/16 06:44:57;;;;;;;58.9;67;;;;;;;9.6;88.9;97750;;;;
2022/11/16 06:54:57;;;;;;;47.9;54.9;;;;;;;9.8;88.8;97740;;;;
2022/11/16 07:04:57;;;;;;;47.9;54.9;;;;;;;9.8;88.8;97730;;;;
2022/11/16 07:15:58;;;;;;;47.9;54.9;;;;;;;9.9;89;97720;;;;
2022/11/16 07:25:57;;;;;;;43.8;51.6;;;;;;;10.1;88.7;97710;;;;
2022/11/16 07:36:57;;;;;;;43.8;51.6;;;;;;;10;88.4;97710;;;;
2022/11/16 07:46:57;;;;;;;43.8;51.6;;;;;;;10.1;88.4;97710;;;;
2022/11/16 07:57:57;;;;;;;39.4;44.2;;;;;;;10.2;88.1;97710;;;;
2022/11/16 08:08:58;;;;;;;39.4;44.2;;;;;;;10.2;87.8;97720;;;;
2022/11/16 08:18:57;;;;;;;47.1;54.7;;;;;;;10.2;87.4;97720;;;;
2022/11/16 08:29:57;;;;;;;47.1;54.7;;;;;;;9.8;88.1;97730;;;;
2022/11/16 08:40:57;;;;;;;47.1;54.7;;;;;;;9.2;88.2;97720;;;;
2022/11/16 08:51:57;;;;;;;54.8;65.7;;;;;;;8.9;88.9;97730;;;;
2022/11/16 09:01:57;;;;;;;54.8;65.7;;;;;;;8.8;88.9;97740;;;;
2022/11/16 09:12:57;;;;;;;54.8;65.7;;;;;;;8.7;89.3;97720;;;;
2022/11/16 09:23:57;;;;;;;33.5;39.5;;;;;;;8.4;89.6;97710;;;;
2022/11/16 09:34:57;;;;;;;33.5;39.5;;;;;;;8.6;89.4;97690;;;;
2022/11/16 09:45:57;;;;;;;33.5;39.5;;;;;;;8.6;89.1;97690;;;;
2022/11/16 09:56:57;;;;;;;19.9;24.5;;;;;;;8.6;88.7;97680;;;;
2022/11/16 10:07:57;;;;;;;19.9;24.5;;;;;;;8.3;88.6;97660;;;;
2022/11/16 10:17:57;;;;;;;19.9;24.5;;;;;;;8.4;88.5;97640;;;;
2022/11/16 10:28:57;;;;;;;14.1;16.7;;;;;;;8.6;88.4;97630;;;;
2022/11/16 10:38:57;;;;;;;14.1;16.7;;;;;;;8.8;87.3;97630;;;;
2022/11/16 10:48:57;;;;;;;11.8;15.4;;;;;;;8.6;87;97630;;;;
2022/11/16 10:59:57;;;;;;;11.8;15.4;;;;;;;8.6;86.9;97630;;;;
2022/11/16 11:09:57;;;;;;;11.8;15.4;;;;;;;8.4;86.9;97630;;;;
2022/11/16 11:20:57;;;;;;;11.6;15.2;;;;;;;8.3;87.2;97620;;;;
2022/11/16 11:30:57;;;;;;;11.6;15.2;;;;;;;8.2;87.6;97620;;;;
2022/11/16 11:41:57;;;;;;;11.6;15.2;;;;;;;8.3;88;97610;;;;
2022/11/16 11:52:57;;;;;;;12;18;;;;;;;8.3;88.1;97600;;;;
2022/11/16 12:02:57;;;;;;;12;18;;;;;;;8.2;88.1;97590;;;;
2022/11/16 12:12:57;;;;;;;12;18;;;;;;;8.1;88.4;97590;;;;
2022/11/16 12:23:57;;;;;;;14.1;17.7;;;;;;;8;88.7;97590;;;;
2022/11/16 12:33:57;;;;;;;14.1;17.7;;;;;;;7.7;89.3;97590;;;;
2022/11/16 12:43:57;;;;;;;14.1;17.7;;;;;;;7.6;89.8;97580;;;;
2022/11/16 12:54:57;;;;;;;13.4;16.8;;;;;;;7.5;90;97580;;;;
2022/11/16 13:04:57;;;;;;;13.4;16.8;;;;;;;7.6;89.9;97570;;;;
2022/11/16 13:15:57;;;;;;;13.4;16.8;;;;;;;7.5;89.8;97570;;;;
2022/11/16 13:25:57;;;;;;;6.2;9.9;;;;;;;7.3;89.9;97570;;;;
2022/11/16 13:35:57;;;;;;;6.2;9.9;;;;;;;7.1;90.4;97580;;;;
2022/11/16 13:46:58;;;;;;;6.2;9.9;;;;;;;7.1;90.3;97570;;;;
2022/11/16 13:56:57;;;;;;;3.3;7.8;;;;;;;7;90.6;97560;;;;
2022/11/16 14:07:57;;;;;;;3.3;7.8;;;;;;;7;90.5;97560;;;;
2022/11/16 14:17:57;;;;;;;3.3;7.8;;;;;;;7.1;90.1;97560;;;;
2022/11/16 14:28:57;;;;;;;2.4;4;;;;;;;7.1;89.9;97560;;;;
2022/11/16 14:39:57;;;;;;;2.4;4;;;;;;;7.1;89.9;97560;;;;
2022/11/16 14:50:57;;;;;;;6;9.2;;;;;;;6.9;90;97550;;;;
2022/11/16 15:01:57;;;;;;;6;9.2;;;;;;;6.9;90.2;97560;;;;
2022/11/16 15:13:01;;;;;;;6;9.2;;;;;;;6.7;90.4;97550;;;;
2022/11/16 15:22:57;;;;;;;8.9;12.1;;;;;;;6.8;90.5;97540;;;;
2022/11/16 15:32:57;;;;;;;8.9;12.1;;;;;;;6.7;90.6;97540;;;;
2022/11/16 15:43:57;;;;;;;8.9;12.1;;;;;;;6.7;90.6;97530;;;;
2022/11/16 15:55:04;;;;;;;5;7.8;;;;;;;6.5;91.1;97530;;;;
2022/11/16 16:04:57;;;;;;;5;7.8;;;;;;;6.5;91;97530;;;;
2022/11/16 16:14:57;;;;;;;5;7.8;;;;;;;6.6;90.9;97530;;;;
2022/11/16 16:25:57;;;;;;;5.9;10.7;;;;;;;6.6;90.9;97530;;;;
2022/11/16 16:35:57;;;;;;;5.9;10.7;;;;;;;6.6;90.8;97540;;;;
2022/11/16 16:46:57;;;;;;;5.9;10.7;;;;;;;6.6;90.8;97530;;;;
2022/11/16 16:57:58;;;;;;;6.4;9.4;;;;;;;6.7;90.9;97530;;;;
2022/11/16 17:07:57;;;;;;;6.4;9.4;;;;;;;6.6;90.9;97520;;;;
2022/11/16 17:17:58;;;;;;;6.4;9.4;;;;;;;6.6;90.9;97520;;;;
2022/11/16 17:27:57;;;;;;;9.2;14.3;;;;;;;6.5;91.1;97520;;;;
2022/11/16 17:37:57;;;;;;;9.2;14.3;;;;;;;6.3;91;97540;;;;
2022/11/16 17:47:57;;;;;;;9.2;14.3;;;;;;;6.2;91;97540;;;;
2022/11/16 17:58:57;;;;;;;6;10.9;;;;;;;6;91.4;97540;;;;
2022/11/16 18:08:57;;;;;;;6;10.9;;;;;;;5.9;91.7;97540;;;;
2022/11/16 18:19:57;;;;;;;6;9.1;;;;;;;5.7;91;97540;;;;
2022/11/16 18:30:57;;;;;;;6;9.1;;;;;;;5.6;91.1;97550;;;;
2022/11/16 18:41:57;;;;;;;6;9.1;;;;;;;5.5;90.9;97550;;;;
2022/11/16 18:51:57;;;;;;;3.2;5;;;;;;;5.1;91.3;97540;;;;
2022/11/16 19:01:57;;;;;;;3.2;5;;;;;;;4.9;91.5;97550;;;;
2022/11/16 19:12:58;;;;;;;3.2;5;;;;;;;4.8;91.8;97550;;;;
2022/11/16 19:22:57;;;;;;;3.5;6.1;;;;;;;4.7;91.9;97550;;;;
2022/11/16 19:33:57;;;;;;;3.5;6.1;;;;;;;4.5;91.9;97550;;;;
2022/11/16 19:43:58;;;;;;;3.5;6.1;;;;;;;4.5;91.7;97550;;;;
2022/11/16 19:54:57;;;;;;;3.5;6.2;;;;;;;4.3;91.7;97540;;;;
2022/11/16 20:05:57;;;;;;;3.5;6.2;;;;;;;4.2;91.5;97550;;;;
2022/11/16 20:16:57;;;;;;;3.5;6.2;;;;;;;4.1;91.5;97560;;;;
2022/11/16 20:26:57;;;;;;;3.2;7;;;;;;;4;91.7;97560;;;;
2022/11/16 20:36:57;;;;;;;3.2;7;;;;;;;3.9;91.7;97560;;;;
2022/11/16 20:47:57;;;;;;;2.9;5.4;;;;;;;3.9;91.9;97560;;;;
2022/11/16 20:58:58;;;;;;;2.9;5.4;;;;;;;3.8;91.9;97560;;;;
2022/11/16 21:08:57;;;;;;;2.9;5.4;;;;;;;3.8;91.9;97550;;;;
2022/11/16 21:18:57;;;;;;;2.1;4.1;;;;;;;3.6;91.4;97560;;;;
2022/11/16 21:29:57;;;;;;;2.1;4.1;;;;;;;3.6;91.1;97550;;;;
2022/11/16 21:39:57;;;;;;;2.1;4.1;;;;;;;3.4;91.1;97540;;;;
2022/11/16 21:49:57;;;;;;;2.4;3.2;;;;;;;3.4;91.5;97530;;;;
2022/11/16 21:59:59;;;;;;;2.4;3.2;;;;;;;3.4;91.6;97550;;;;
2022/11/16 22:10:57;;;;;;;2.4;3.2;;;;;;;3.6;91.6;97560;;;;
2022/11/16 22:20:58;;;;;;;1.5;2.5;;;;;;;3.7;91.4;97560;;;;
2022/11/16 22:31:57;;;;;;;1.5;2.5;;;;;;;3.6;91.3;97550;;;;
2022/11/16 22:42:57;;;;;;;1.5;2.5;;;;;;;3.7;91.4;97550;;;;
2022/11/16 22:52:57;;;;;;;1.9;4.2;;;;;;;3.7;91.2;97560;;;;
2022/11/16 23:03:57;;;;;;;1.9;4.2;;;;;;;3.6;91.1;97560;;;;
2022/11/16 23:16:01;;;;;;;1.9;4.2;;;;;;;3.7;91;97560;;;;
2022/11/16 23:35:57;;;;;;;1.6;4;;;;;;;3.3;90.9;97540;;;;
2022/11/16 23:46:57;;;;;;;1.6;4;;;;;;;3.2;90.8;97520;;;;
2022/11/16 23:57:57;;;;;;;1.7;3;;;;;;;3.3;91;97530;;;;
